Time;durP1;ratioP1;P1;durP2;ratioP2;P2;SDS_P1;SDS_P2;PMS_P1;PMS_P2;Temp;Humidity;BMP_temperature;BMP_pressure;BME280_temperature;BME280_humidity;BME280_pressure;Samples;Min_cycle;Max_cycle;Signal;HPM_P1;HPM_P2
2022/05/17 00:25:30;;;;;;;2.88;0.68;;;15.30;99.90;;;;;;4784128;26;20059;-86
2022/05/17 00:28:11;;;;;;;4.72;1.10;;;15.30;99.90;;;;;;4950956;28;20031;-86
2022/05/17 00:30:46;;;;;;;2.72;0.90;;;15.30;99.90;;;;;;4956644;28;20044;-86
2022/05/17 00:33:23;;;;;;;2.67;0.88;;;15.30;99.90;;;;;;4973292;28;20042;-86
2022/05/17 00:36:14;;;;;;;3.45;0.90;;;15.20;99.90;;;;;;4958071;28;20034;-87
2022/05/17 00:38:56;;;;;;;4.22;0.82;;;15.30;99.90;;;;;;4956416;28;20113;-86
2022/05/17 00:41:40;;;;;;;2.00;0.70;;;15.20;99.90;;;;;;4946323;28;20060;-87
2022/05/17 00:47:37;;;;;;;1.98;0.88;;;15.20;99.90;;;;;;4950061;28;20030;-87
2022/05/17 00:50:15;;;;;;;2.53;0.80;;;15.20;99.90;;;;;;4939235;28;20378;-87
2022/05/17 00:52:48;;;;;;;2.22;0.70;;;15.10;99.90;;;;;;4949324;28;20024;-87
2022/05/17 00:56:00;;;;;;;1.83;0.80;;;15.00;99.90;;;;;;4959164;28;20026;-87
2022/05/17 00:59:14;;;;;;;2.95;0.80;;;15.10;99.90;;;;;;4949048;28;20512;-87
2022/05/17 01:02:11;;;;;;;3.35;0.82;;;15.10;99.90;;;;;;4945722;28;20050;-87
2022/05/17 01:07:24;;;;;;;2.67;1.00;;;15.00;99.90;;;;;;5019183;23;20062;-86
2022/05/17 01:10:05;;;;;;;3.17;0.73;;;15.00;99.90;;;;;;4933955;28;20086;-86
2022/05/17 01:14:57;;;;;;;2.55;0.90;;;15.00;99.90;;;;;;4938059;29;20413;-87
2022/05/17 01:16:18;;;;;;;1.95;0.90;;;15.00;99.90;;;;;;4929184;28;20056;-87
2022/05/17 01:19:29;;;;;;;1.90;0.73;;;14.90;99.90;;;;;;4925586;29;20036;-87
2022/05/17 01:22:21;;;;;;;1.55;0.60;;;14.90;99.90;;;;;;4921030;29;20055;-87
2022/05/17 01:24:59;;;;;;;4.22;0.90;;;14.90;99.90;;;;;;4934736;29;20040;-88
2022/05/17 01:28:22;;;;;;;1.88;0.65;;;14.80;99.90;;;;;;4922871;29;20121;-87
2022/05/17 01:31:02;;;;;;;;;;;;;;;;;;;;;
2022/05/17 01:33:43;;;;;;;2.30;1.00;;;14.70;99.90;;;;;;4923228;29;20115;-86
2022/05/17 01:36:21;;;;;;;3.72;1.20;;;14.70;99.90;;;;;;4919813;29;20075;-86
2022/05/17 01:39:07;;;;;;;2.20;0.90;;;14.70;99.90;;;;;;4927733;29;20052;-87
2022/05/17 01:41:44;;;;;;;2.03;0.80;;;14.70;99.90;;;;;;4925426;29;20027;-86
2022/05/17 01:47:43;;;;;;;1.98;0.80;;;14.60;99.90;;;;;;4910095;29;20053;-87
2022/05/17 01:50:43;;;;;;;1.75;0.73;;;14.40;99.90;;;;;;4921215;29;20497;-87
2022/05/17 01:53:17;;;;;;;3.10;1.00;;;14.60;99.90;;;;;;4914748;29;20139;-87
2022/05/17 01:56:07;;;;;;;3.08;1.17;;;14.50;99.90;;;;;;4926202;28;20052;-87
2022/05/17 01:58:46;;;;;;;5.32;1.02;;;14.50;99.90;;;;;;4917951;29;20111;-86
2022/05/17 02:01:19;;;;;;;1.98;0.80;;;14.40;99.90;;;;;;4938939;28;20040;-87
2022/05/17 02:04:21;;;;;;;2.55;0.80;;;14.30;99.90;;;;;;4931470;29;20043;-87
2022/05/17 02:10:11;;;;;;;2.80;1.20;;;14.30;99.90;;;;;;4921038;29;20036;-87
2022/05/17 02:12:45;;;;;;;2.47;1.00;;;14.10;99.90;;;;;;4913633;29;20264;-87
2022/05/17 02:15:30;;;;;;;2.42;0.98;;;14.20;99.90;;;;;;4915991;29;20032;-86
2022/05/17 02:18:12;;;;;;;2.10;1.05;;;14.20;99.90;;;;;;4921209;28;20040;-87
2022/05/17 02:20:41;;;;;;;2.65;1.00;;;14.20;99.90;;;;;;4916335;28;20035;-87
2022/05/17 02:23:24;;;;;;;2.10;0.80;;;14.20;99.90;;;;;;4928786;29;20114;-87
2022/05/17 02:26:02;;;;;;;2.80;0.82;;;14.30;99.90;;;;;;4920713;29;20043;-87
2022/05/17 02:28:35;;;;;;;2.95;1.00;;;14.20;99.90;;;;;;4948172;28;20028;-87
2022/05/17 02:31:05;;;;;;;2.00;0.82;;;14.30;99.90;;;;;;4925412;29;20068;-88
2022/05/17 02:33:33;;;;;;;2.05;1.08;;;14.20;99.90;;;;;;4925097;29;20054;-87
2022/05/17 02:36:02;;;;;;;2.10;0.90;;;14.20;99.90;;;;;;4925412;29;20051;-87
2022/05/17 02:38:32;;;;;;;2.38;0.82;;;14.20;99.90;;;;;;4921374;29;20037;-86
2022/05/17 02:41:27;;;;;;;2.55;1.10;;;14.20;99.90;;;;;;4921061;29;20032;-87
2022/05/17 02:44:03;;;;;;;2.80;1.00;;;14.20;99.90;;;;;;4944243;28;20088;-87
2022/05/17 02:46:39;;;;;;;3.83;1.20;;;14.20;99.90;;;;;;4921511;29;20055;-87
2022/05/17 02:49:15;;;;;;;2.55;0.90;;;14.10;99.90;;;;;;4921761;29;20046;-87
2022/05/17 02:51:49;;;;;;;1.83;0.73;;;14.10;99.90;;;;;;4924486;29;20035;-88
2022/05/17 02:54:29;;;;;;;1.83;0.73;;;14.10;99.90;;;;;;4923289;29;20040;-87
2022/05/17 02:56:56;;;;;;;2.08;1.02;;;14.00;99.90;;;;;;4918085;29;20034;-87
2022/05/17 02:59:22;;;;;;;2.55;1.15;;;14.00;99.90;;;;;;4918379;29;20052;-87
2022/05/17 03:01:53;;;;;;;2.28;0.88;;;14.00;99.90;;;;;;4927877;28;20095;-87
2022/05/17 03:04:21;;;;;;;2.25;0.85;;;14.00;99.90;;;;;;4925797;29;20051;-86
2022/05/17 03:06:47;;;;;;;5.30;1.65;;;14.00;99.90;;;;;;4919100;29;20089;-86
2022/05/17 03:09:18;;;;;;;2.03;1.00;;;14.10;99.90;;;;;;4921513;29;20449;-88
2022/05/17 03:11:46;;;;;;;3.87;1.27;;;14.00;99.90;;;;;;4905472;29;20036;-87
2022/05/17 03:14:18;;;;;;;2.60;1.10;;;13.90;99.90;;;;;;4912324;29;20029;-87
2022/05/17 03:16:45;;;;;;;1.75;0.90;;;13.90;99.90;;;;;;4910522;29;20036;-87
2022/05/17 03:19:11;;;;;;;3.13;1.10;;;14.00;99.90;;;;;;4916067;29;20028;-87
2022/05/17 03:21:36;;;;;;;4.65;1.23;;;13.90;99.90;;;;;;4930740;29;20031;-86
2022/05/17 03:24:03;;;;;;;2.20;1.00;;;14.00;99.90;;;;;;4918927;28;20561;-86
2022/05/17 03:26:29;;;;;;;2.35;1.10;;;13.70;99.90;;;;;;4913247;29;20111;-87
2022/05/17 03:29:05;;;;;;;3.17;1.52;;;13.80;99.90;;;;;;4909847;29;20063;-87
2022/05/17 03:31:33;;;;;;;3.05;1.10;;;14.00;99.90;;;;;;4931172;28;20042;-87
2022/05/17 03:34:02;;;;;;;2.20;1.20;;;13.80;99.90;;;;;;4914118;29;20079;-87
2022/05/17 03:36:28;;;;;;;5.38;1.10;;;13.80;99.90;;;;;;4919526;29;20064;-87
2022/05/17 03:38:56;;;;;;;3.47;1.33;;;13.80;99.90;;;;;;4906199;29;20064;-87
2022/05/17 03:41:24;;;;;;;7.45;1.65;;;13.70;99.90;;;;;;4911276;29;20414;-87
2022/05/17 03:44:03;;;;;;;3.22;1.40;;;13.70;99.90;;;;;;4924051;28;20036;-87
2022/05/17 03:46:35;;;;;;;4.13;1.65;;;13.70;99.90;;;;;;4918440;29;20063;-87
2022/05/17 03:49:01;;;;;;;2.97;1.38;;;13.70;99.90;;;;;;4915668;29;20083;-87
2022/05/17 03:51:27;;;;;;;3.85;1.58;;;13.70;99.90;;;;;;4917259;29;20490;-87
2022/05/17 03:53:56;;;;;;;2.92;1.17;;;13.70;99.90;;;;;;4914727;29;20036;-87
2022/05/17 03:56:22;;;;;;;3.90;1.30;;;13.70;99.90;;;;;;4919837;29;20091;-87
2022/05/17 03:58:52;;;;;;;3.08;1.17;;;13.70;99.90;;;;;;4921951;29;20115;-87
2022/05/17 04:01:27;;;;;;;2.88;1.13;;;13.60;99.90;;;;;;4915890;29;20035;-88
2022/05/17 04:04:12;;;;;;;3.05;1.20;;;13.70;99.90;;;;;;4917648;29;20039;-88
2022/05/17 04:06:47;;;;;;;3.35;1.52;;;13.60;99.90;;;;;;4910655;29;20146;-87
2022/05/17 04:09:18;;;;;;;3.38;1.52;;;13.60;99.90;;;;;;4918343;29;20028;-87
2022/05/17 04:11:50;;;;;;;2.92;1.30;;;13.60;99.90;;;;;;4910482;29;20058;-88
2022/05/17 04:14:31;;;;;;;2.65;1.25;;;13.60;99.90;;;;;;4917687;29;20036;-87
2022/05/17 04:16:59;;;;;;;4.10;1.20;;;13.70;99.90;;;;;;4920964;28;20040;-87
2022/05/17 04:19:35;;;;;;;3.85;1.40;;;13.70;99.90;;;;;;4925919;29;20024;-87
2022/05/17 04:22:07;;;;;;;2.65;1.20;;;13.70;99.90;;;;;;4921650;29;20039;-87
2022/05/17 04:24:38;;;;;;;;;;;13.80;99.90;;;;;;4921688;29;20083;-87
2022/05/17 04:27:04;;;;;;;2.35;1.00;;;13.70;99.90;;;;;;4912512;29;19911;-85
2022/05/17 04:29:31;;;;;;;3.00;1.20;;;13.80;99.90;;;;;;4913756;29;20024;-87
2022/05/17 04:32:00;;;;;;;2.83;1.30;;;13.90;99.90;;;;;;4918030;29;20036;-87
2022/05/17 04:34:28;;;;;;;4.22;1.17;;;14.10;99.90;;;;;;4920535;29;20482;-87
2022/05/17 04:37:02;;;;;;;3.92;1.60;;;14.00;99.90;;;;;;4917923;29;20032;-86
2022/05/17 04:39:30;;;;;;;2.80;1.40;;;14.00;99.90;;;;;;4909313;29;20036;-87
2022/05/17 04:41:57;;;;;;;3.05;1.50;;;14.10;99.90;;;;;;4912391;29;20025;-87
2022/05/17 04:44:23;;;;;;;3.60;1.40;;;14.20;99.90;;;;;;4917465;29;20397;-87
2022/05/17 04:46:49;;;;;;;2.97;1.10;;;14.20;99.90;;;;;;4921818;29;20043;-88
2022/05/17 04:49:15;;;;;;;2.22;1.10;;;14.50;99.90;;;;;;4917453;29;20040;-88
2022/05/17 04:51:44;;;;;;;3.35;1.30;;;14.40;99.90;;;;;;4919111;29;20070;-87
2022/05/17 04:54:13;;;;;;;4.60;1.10;;;14.50;99.90;;;;;;4914516;29;20024;-87
2022/05/17 04:56:42;;;;;;;3.15;1.20;;;14.50;99.90;;;;;;4916052;29;20036;-87
2022/05/17 04:59:10;;;;;;;3.40;1.17;;;14.60;99.90;;;;;;4919753;29;20147;-87
2022/05/17 05:01:39;;;;;;;3.92;1.35;;;14.70;99.90;;;;;;4917093;29;20035;-87
2022/05/17 05:04:07;;;;;;;2.75;1.20;;;14.70;99.90;;;;;;4935253;29;20027;-87
2022/05/17 05:06:36;;;;;;;2.90;1.30;;;14.80;99.90;;;;;;4932655;29;20039;-87
2022/05/17 05:09:02;;;;;;;2.28;0.93;;;14.90;99.90;;;;;;4941456;28;20087;-87
2022/05/17 05:11:28;;;;;;;6.10;1.70;;;15.00;99.90;;;;;;4928008;28;20036;-87
2022/05/17 05:13:55;;;;;;;2.25;1.17;;;15.20;99.90;;;;;;4913670;29;20032;-87
2022/05/17 05:16:22;;;;;;;2.97;1.38;;;15.20;99.90;;;;;;4916789;29;20103;-87
2022/05/17 05:18:54;;;;;;;3.40;1.30;;;15.30;99.90;;;;;;4912860;29;20195;-87
2022/05/17 05:21:20;;;;;;;5.15;1.77;;;15.30;99.90;;;;;;4914669;29;20102;-87
2022/05/17 05:23:45;;;;;;;3.15;1.35;;;15.50;99.90;;;;;;4914107;29;20067;-87
2022/05/17 05:26:12;;;;;;;2.45;1.00;;;15.60;99.90;;;;;;4909056;29;20438;-87
2022/05/17 05:28:40;;;;;;;3.33;1.20;;;15.70;99.90;;;;;;4909339;29;20039;-87
2022/05/17 05:31:08;;;;;;;3.90;1.33;;;15.80;99.90;;;;;;4929089;29;20056;-87
2022/05/17 05:33:34;;;;;;;2.65;1.20;;;15.90;99.90;;;;;;4927315;29;20062;-87
2022/05/17 05:36:02;;;;;;;5.53;1.60;;;15.90;99.90;;;;;;4907015;29;20043;-86
2022/05/17 05:38:30;;;;;;;4.90;1.50;;;16.00;99.90;;;;;;4940939;29;20405;-86
2022/05/17 05:40:56;;;;;;;3.58;1.40;;;16.10;99.90;;;;;;4927231;29;20117;-87
2022/05/17 05:43:22;;;;;;;3.25;1.23;;;16.10;99.90;;;;;;4927448;29;20048;-87
2022/05/17 05:45:47;;;;;;;4.53;1.70;;;16.10;99.90;;;;;;4921502;29;20041;-87
2022/05/17 05:48:13;;;;;;;2.97;1.23;;;16.10;99.90;;;;;;4911182;29;20060;-87
2022/05/17 05:50:39;;;;;;;3.80;1.30;;;16.10;99.90;;;;;;4921882;29;20118;-86
2022/05/17 05:53:13;;;;;;;3.30;1.27;;;16.10;99.90;;;;;;4927653;29;20070;-85
2022/05/17 05:55:41;;;;;;;2.92;1.30;;;16.10;99.90;;;;;;4897695;29;20037;-86
2022/05/17 05:58:07;;;;;;;3.55;1.60;;;16.20;99.90;;;;;;4926690;29;20392;-86
2022/05/17 06:00:35;;;;;;;3.10;1.58;;;16.20;99.90;;;;;;4907307;29;20388;-87
2022/05/17 06:03:01;;;;;;;4.68;1.42;;;16.30;99.90;;;;;;4954919;28;20445;-87
2022/05/17 06:05:28;;;;;;;2.75;1.25;;;16.50;99.90;;;;;;4941057;29;20056;-88
2022/05/17 06:08:05;;;;;;;3.33;1.17;;;16.50;99.90;;;;;;4905444;29;20131;-87
2022/05/17 06:10:36;;;;;;;2.70;1.48;;;16.70;99.90;;;;;;4903277;29;20508;-88
2022/05/17 06:13:02;;;;;;;3.83;1.40;;;16.60;99.90;;;;;;4908082;29;20124;-88
2022/05/17 06:15:28;;;;;;;2.65;1.20;;;16.70;99.90;;;;;;4922851;29;20056;-88
2022/05/17 06:17:53;;;;;;;3.05;1.30;;;16.70;99.90;;;;;;4926274;29;20030;-88
2022/05/17 06:20:21;;;;;;;2.55;1.45;;;16.80;99.90;;;;;;4947166;28;20021;-88
2022/05/17 06:22:53;;;;;;;3.50;1.30;;;16.70;99.90;;;;;;4935459;29;20086;-88
2022/05/17 06:28:40;;;;;;;;;;;;;;;;;;;;;
2022/05/17 06:39:10;;;;;;;6.38;1.70;;;17.00;99.90;;;;;;4958816;28;20050;-88
2022/05/17 06:41:43;;;;;;;4.85;1.92;;;17.20;99.90;;;;;;4936049;29;20035;-87
2022/05/17 06:44:53;;;;;;;3.50;1.65;;;17.00;99.90;;;;;;4939549;29;20032;-88
2022/05/17 06:48:11;;;;;;;3.88;1.60;;;16.80;99.90;;;;;;4909693;29;20046;-89
2022/05/17 06:51:29;;;;;;;5.60;1.90;;;16.80;99.90;;;;;;4853801;29;20144;-87
2022/05/17 06:58:03;;;;;;;;;;;;;;;;;;;;;
2022/05/17 07:01:33;;;;;;;3.20;1.88;;;17.10;99.90;;;;;;4860872;29;20025;-88
2022/05/17 07:07:57;;;;;;;4.80;2.03;;;17.00;99.90;;;;;;4878649;29;20119;-88
2022/05/17 07:25:10;;;;;;;2.92;1.50;;;18.30;99.90;;;;;;4931464;29;20525;-87
2022/05/17 07:28:07;;;;;;;4.00;1.60;;;18.50;99.90;;;;;;4917053;29;20087;-87
2022/05/17 07:31:12;;;;;;;4.45;1.70;;;18.70;99.90;;;;;;4916087;29;20043;-89
2022/05/17 07:34:41;;;;;;;4.85;1.77;;;18.80;99.90;;;;;;4861439;29;20040;-89
2022/05/17 07:38:21;;;;;;;;;;;;;;;;;;;;;
2022/05/17 07:45:37;;;;;;;2.80;1.73;;;18.80;99.90;;;;;;4820613;29;20043;-89
2022/05/17 07:48:29;;;;;;;4.40;1.50;;;19.10;99.90;;;;;;4906547;29;20217;-89
2022/05/17 07:54:46;;;;;;;5.00;1.90;;;19.90;99.90;;;;;;4895561;29;20044;-88
2022/05/17 12:36:45;;;;;;;1.38;0.40;;;28.30;76.30;;;;;;4949261;23;20524;-89
2022/05/17 12:43:37;;;;;;;4.45;0.65;;;29.00;74.20;;;;;;4895248;29;20521;-88
2022/05/17 12:47:09;;;;;;;1.65;0.40;;;29.20;74.70;;;;;;4933223;29;20031;-89
2022/05/17 12:49:48;;;;;;;1.02;0.38;;;29.10;73.30;;;;;;4928940;28;20028;-88
2022/05/17 12:52:41;;;;;;;1.48;0.55;;;29.40;73.90;;;;;;4935198;28;20449;-88
2022/05/17 12:58:52;;;;;;;1.60;0.50;;;29.20;72.50;;;;;;4893631;29;20509;-89
2022/05/17 13:04:36;;;;;;;0.90;0.38;;;29.40;71.40;;;;;;4917521;29;20047;-88
2022/05/17 13:07:17;;;;;;;1.33;0.43;;;29.60;71.50;;;;;;4937998;29;20056;-88
2022/05/17 13:09:54;;;;;;;;;;;29.50;70.10;;;;;;4912790;29;20086;-88
2022/05/17 13:12:28;;;;;;;2.63;0.30;;;29.50;69.00;;;;;;4915755;29;19907;-87
2022/05/17 13:15:29;;;;;;;0.45;0.20;;;30.00;68.90;;;;;;4928489;29;20111;-88
2022/05/17 13:18:19;;;;;;;1.60;0.30;;;29.90;68.60;;;;;;4929282;29;20043;-88
2022/05/17 13:20:53;;;;;;;1.48;0.40;;;29.60;67.90;;;;;;4939101;29;20397;-88
2022/05/17 13:23:26;;;;;;;1.15;0.30;;;29.80;67.60;;;;;;4943018;29;20036;-89
2022/05/17 13:25:59;;;;;;;1.00;0.30;;;29.90;67.20;;;;;;4932168;29;20447;-88
2022/05/17 13:28:54;;;;;;;2.45;0.38;;;29.60;67.70;;;;;;4931699;29;20036;-88
2022/05/17 13:31:32;;;;;;;0.80;0.30;;;29.90;67.00;;;;;;4929283;29;20072;-88
2022/05/17 13:34:20;;;;;;;1.00;0.22;;;30.00;65.90;;;;;;4954750;28;20039;-89
2022/05/17 13:37:13;;;;;;;2.00;0.28;;;30.20;65.10;;;;;;4950845;28;20067;-88
2022/05/17 13:39:58;;;;;;;1.52;0.30;;;30.30;65.20;;;;;;4943683;28;20028;-88
2022/05/17 13:42:52;;;;;;;2.20;0.38;;;30.40;65.20;;;;;;4929095;29;20544;-89
2022/05/17 13:45:42;;;;;;;1.33;0.30;;;30.40;66.60;;;;;;4914439;29;20493;-88
2022/05/17 13:48:23;;;;;;;0.70;0.40;;;30.70;68.10;;;;;;4923406;29;20551;-88
2022/05/17 13:51:04;;;;;;;;;;;30.90;65.00;;;;;;4913622;29;20064;-88
2022/05/17 13:53:47;;;;;;;0.93;0.30;;;31.00;64.70;;;;;;4912856;29;20001;-89
2022/05/17 13:56:32;;;;;;;0.63;0.22;;;31.20;63.50;;;;;;4913973;29;20035;-88
2022/05/17 13:59:39;;;;;;;;;;;;;;;;;;;;;
2022/05/17 14:02:29;;;;;;;0.98;0.22;;;31.50;64.30;;;;;;4914005;29;20023;-87
2022/05/17 14:05:18;;;;;;;0.70;0.30;;;31.40;62.60;;;;;;4912839;29;20111;-89
2022/05/17 14:07:58;;;;;;;0.73;0.30;;;31.80;62.20;;;;;;4913524;29;20036;-87
2022/05/17 14:13:26;;;;;;;0.93;0.22;;;31.90;62.50;;;;;;4935725;29;20066;-85
2022/05/17 14:15:53;;;;;;;0.47;0.20;;;32.30;62.20;;;;;;4937280;29;20067;-86
2022/05/17 14:18:40;;;;;;;0.60;0.20;;;32.10;60.60;;;;;;4924708;29;20036;-87
2022/05/17 14:21:08;;;;;;;1.85;0.30;;;32.20;61.60;;;;;;4937754;28;20131;-85
2022/05/17 14:23:36;;;;;;;0.35;0.20;;;31.90;62.30;;;;;;4937334;29;20016;-86
2022/05/17 14:26:05;;;;;;;1.20;0.20;;;32.20;61.90;;;;;;4950893;28;20377;-86
2022/05/17 14:28:32;;;;;;;0.60;0.30;;;32.50;61.40;;;;;;4937712;29;20023;-87
2022/05/17 14:30:58;;;;;;;1.05;0.22;;;32.50;60.00;;;;;;4939514;29;20036;-88
2022/05/17 14:33:25;;;;;;;1.38;0.30;;;32.70;59.10;;;;;;4939935;29;20047;-88
2022/05/17 14:35:53;;;;;;;0.30;0.20;;;32.80;61.50;;;;;;4936620;29;20032;-88
2022/05/17 14:38:25;;;;;;;0.80;0.30;;;32.60;58.70;;;;;;4937502;29;20036;-87
2022/05/17 14:40:51;;;;;;;1.75;0.47;;;32.00;58.20;;;;;;4938310;29;20032;-88
2022/05/17 14:43:17;;;;;;;0.45;0.30;;;32.20;59.00;;;;;;4937707;29;20047;-87
2022/05/17 14:45:53;;;;;;;0.88;0.30;;;32.00;59.10;;;;;;4937567;29;20602;-84
2022/05/17 14:48:21;;;;;;;0.82;0.38;;;32.00;60.10;;;;;;4938336;29;20019;-85
2022/05/17 14:50:47;;;;;;;1.17;0.20;;;31.90;59.90;;;;;;4936636;29;20031;-85
2022/05/17 14:53:13;;;;;;;0.95;0.30;;;31.60;60.00;;;;;;4935453;29;20055;-85
2022/05/17 14:55:39;;;;;;;2.33;0.38;;;31.40;61.20;;;;;;4931881;29;20062;-86
2022/05/17 14:58:06;;;;;;;1.02;0.30;;;31.00;60.60;;;;;;4938457;28;20031;-86
2022/05/17 15:00:33;;;;;;;1.70;0.30;;;30.60;60.30;;;;;;4935604;29;20368;-84
2022/05/17 15:03:05;;;;;;;1.20;0.63;;;30.30;61.70;;;;;;4941594;28;20052;-85
2022/05/17 15:05:32;;;;;;;0.93;0.35;;;29.70;63.10;;;;;;4926675;29;20027;-84
2022/05/17 15:07:58;;;;;;;0.98;0.30;;;29.40;63.20;;;;;;4921926;29;20043;-85
2022/05/17 15:10:27;;;;;;;0.90;0.40;;;29.10;64.00;;;;;;4926183;29;20036;-84
2022/05/17 15:12:53;;;;;;;0.68;0.20;;;29.00;63.00;;;;;;4939604;28;20115;-85
2022/05/17 15:15:20;;;;;;;2.03;0.30;;;29.30;63.50;;;;;;4927877;29;20025;-84
2022/05/17 15:17:53;;;;;;;0.45;0.28;;;29.50;62.40;;;;;;4933374;29;20514;-85
2022/05/17 15:20:20;;;;;;;1.00;0.30;;;29.70;61.60;;;;;;4947219;29;20075;-84
2022/05/17 15:22:46;;;;;;;0.57;0.20;;;29.50;61.10;;;;;;4938189;29;20024;-85
2022/05/17 15:25:14;;;;;;;1.48;0.30;;;29.30;61.60;;;;;;4917597;29;20099;-84
2022/05/17 15:27:40;;;;;;;1.48;0.20;;;29.10;62.50;;;;;;4920013;29;20026;-84
2022/05/17 15:30:07;;;;;;;1.00;0.30;;;28.80;64.30;;;;;;4919593;29;20024;-84
2022/05/17 15:32:33;;;;;;;1.23;0.50;;;28.40;64.70;;;;;;4917852;28;20024;-84
2022/05/17 15:34:59;;;;;;;1.73;0.30;;;28.60;65.00;;;;;;4923161;29;20030;-84
2022/05/17 15:37:27;;;;;;;1.58;0.45;;;28.70;65.30;;;;;;4931249;29;20433;-85
2022/05/17 15:39:53;;;;;;;1.27;0.38;;;28.70;65.30;;;;;;4936930;29;20024;-84
2022/05/17 15:42:19;;;;;;;0.60;0.32;;;28.60;64.50;;;;;;4937359;29;20558;-84
2022/05/17 15:44:45;;;;;;;1.38;0.40;;;28.50;65.00;;;;;;4937228;29;20032;-84
2022/05/17 15:53:24;;;;;;;0.65;0.30;;;29.20;64.60;;;;;;4936866;29;20051;-86
2022/05/17 15:55:58;;;;;;;0.98;0.30;;;29.10;63.90;;;;;;4933988;29;20059;-86
2022/05/17 15:58:38;;;;;;;0.82;0.20;;;29.00;64.20;;;;;;4938689;29;20051;-87
2022/05/17 16:01:14;;;;;;;1.50;0.30;;;28.80;65.00;;;;;;4932473;29;20127;-88
2022/05/17 16:03:55;;;;;;;0.80;0.40;;;28.70;65.40;;;;;;4933494;29;20365;-86
2022/05/17 16:06:37;;;;;;;1.17;0.40;;;28.70;66.00;;;;;;4935996;29;20028;-86
2022/05/17 16:09:06;;;;;;;1.30;0.40;;;28.40;64.80;;;;;;4947162;28;20598;-86
2022/05/17 16:11:51;;;;;;;1.33;0.57;;;28.10;65.40;;;;;;4935722;29;20033;-86
2022/05/17 16:14:23;;;;;;;0.98;0.30;;;27.80;66.70;;;;;;4935571;29;20032;-87
2022/05/17 16:16:56;;;;;;;0.98;0.20;;;27.50;67.30;;;;;;4932649;29;20115;-87
2022/05/17 16:19:24;;;;;;;1.13;0.30;;;27.30;67.80;;;;;;4939069;28;20035;-84
2022/05/17 16:21:54;;;;;;;0.45;0.30;;;27.10;66.90;;;;;;4934845;29;20645;-84
2022/05/17 16:24:22;;;;;;;0.73;0.30;;;26.90;68.80;;;;;;4935640;29;20383;-85
2022/05/17 16:26:49;;;;;;;1.05;0.32;;;26.80;68.40;;;;;;4935585;29;20033;-84
2022/05/17 16:29:14;;;;;;;0.57;0.30;;;26.50;68.10;;;;;;4918620;29;20468;-84
2022/05/17 16:31:40;;;;;;;1.23;0.40;;;26.20;68.10;;;;;;4941953;28;20059;-86
2022/05/17 16:34:09;;;;;;;0.38;0.20;;;25.80;69.10;;;;;;4949116;28;20058;-90
2022/05/17 16:36:41;;;;;;;0.52;0.20;;;25.70;69.60;;;;;;4946955;28;20035;-87
2022/05/17 16:39:11;;;;;;;1.02;0.40;;;25.50;69.80;;;;;;4954444;28;20028;-87
2022/05/17 16:41:40;;;;;;;0.95;0.25;;;25.30;70.10;;;;;;4934206;29;20035;-87
2022/05/17 16:44:06;;;;;;;1.15;0.50;;;25.30;69.40;;;;;;4951635;28;20083;-87
2022/05/17 16:46:31;;;;;;;0.55;0.28;;;25.40;70.20;;;;;;4939843;29;20024;-86
2022/05/17 16:48:59;;;;;;;0.55;0.30;;;25.30;70.10;;;;;;4947953;29;20392;-87
2022/05/17 16:51:27;;;;;;;1.30;0.68;;;25.30;69.80;;;;;;4934124;29;20030;-87
2022/05/17 16:54:04;;;;;;;1.85;0.40;;;25.30;70.00;;;;;;4938438;29;20062;-87
2022/05/17 16:56:35;;;;;;;1.25;0.40;;;25.30;70.50;;;;;;4936436;29;20042;-87
2022/05/17 16:59:07;;;;;;;1.52;0.50;;;25.30;71.00;;;;;;4935366;29;20044;-87
2022/05/17 17:02:07;;;;;;;1.25;0.50;;;25.20;71.60;;;;;;4934956;29;20034;-87
2022/05/17 17:04:36;;;;;;;1.70;0.32;;;25.10;71.60;;;;;;4931012;29;20031;-87
2022/05/17 17:07:08;;;;;;;1.08;0.30;;;25.10;71.50;;;;;;4935534;29;20046;-87
2022/05/17 17:09:44;;;;;;;0.63;0.40;;;25.10;71.70;;;;;;4937216;29;20555;-87
2022/05/17 17:12:19;;;;;;;0.77;0.30;;;25.00;71.70;;;;;;4933952;29;20134;-87
2022/05/17 17:14:53;;;;;;;0.93;0.32;;;25.00;72.30;;;;;;4936066;29;20459;-88
2022/05/17 17:17:29;;;;;;;1.27;0.40;;;24.80;71.60;;;;;;4932076;29;20032;-87
2022/05/17 17:20:11;;;;;;;0.88;0.40;;;24.80;71.90;;;;;;4926692;29;20042;-87
2022/05/17 17:22:44;;;;;;;1.25;0.40;;;24.70;73.00;;;;;;4940255;29;20035;-89
2022/05/17 17:25:44;;;;;;;1.17;0.38;;;24.70;73.70;;;;;;4935054;28;20374;-89
2022/05/17 17:28:13;;;;;;;0.85;0.40;;;24.60;74.70;;;;;;4952391;29;20035;-88
2022/05/17 17:30:57;;;;;;;0.93;0.30;;;24.50;73.50;;;;;;4943866;29;20043;-88
2022/05/17 17:39:19;;;;;;;0.75;0.30;;;24.40;73.30;;;;;;4938414;29;20205;-89
2022/05/17 17:42:30;;;;;;;1.58;0.50;;;24.30;73.40;;;;;;4936065;29;20031;-88
2022/05/17 17:45:13;;;;;;;1.80;0.60;;;24.30;75.00;;;;;;4937719;29;20054;-88
2022/05/17 17:47:55;;;;;;;;;;;;;;;;;;;;;
2022/05/17 17:50:33;;;;;;;1.30;0.50;;;24.10;75.00;;;;;;4940387;29;20580;-86
2022/05/17 17:53:09;;;;;;;1.25;0.35;;;24.10;74.60;;;;;;4950545;28;20027;-85
2022/05/17 17:55:48;;;;;;;0.73;0.20;;;24.10;75.10;;;;;;4934757;29;20116;-85
2022/05/17 17:58:16;;;;;;;0.70;0.30;;;24.00;73.70;;;;;;4933852;29;20057;-84
2022/05/17 18:00:45;;;;;;;0.30;0.22;;;24.10;73.80;;;;;;4919724;29;20054;-84
2022/05/17 18:03:11;;;;;;;1.35;0.45;;;24.00;74.50;;;;;;4946372;28;20492;-85
2022/05/17 18:05:40;;;;;;;1.50;0.30;;;24.00;73.60;;;;;;4939287;28;20041;-86
2022/05/17 18:08:12;;;;;;;1.15;0.40;;;24.00;73.20;;;;;;4912782;29;20032;-86
2022/05/17 18:10:44;;;;;;;1.15;0.30;;;24.00;73.60;;;;;;4934988;29;20040;-84
2022/05/17 18:13:14;;;;;;;1.15;0.30;;;23.90;73.10;;;;;;4936387;29;20035;-85
2022/05/17 18:15:40;;;;;;;3.08;0.50;;;23.90;73.10;;;;;;4935380;29;20055;-84
2022/05/17 18:18:07;;;;;;;1.40;0.50;;;23.90;73.90;;;;;;4928046;29;20063;-85
2022/05/17 18:20:34;;;;;;;0.98;0.40;;;23.90;74.60;;;;;;4933914;29;20038;-84
2022/05/17 18:23:35;;;;;;;0.82;0.30;;;23.80;74.10;;;;;;4938800;29;20032;-87
2022/05/17 18:26:41;;;;;;;0.80;0.30;;;23.80;75.50;;;;;;4931910;29;20114;-87
2022/05/17 18:29:34;;;;;;;1.00;0.50;;;23.70;76.00;;;;;;4959308;28;20047;-87
2022/05/17 18:32:18;;;;;;;;;;;;;;;;;;;;;
2022/05/17 18:35:44;;;;;;;0.85;0.32;;;23.50;76.70;;;;;;4941118;29;20106;-88
2022/05/17 18:39:14;;;;;;;1.00;0.30;;;23.30;77.60;;;;;;4960048;28;20040;-86
2022/05/17 18:41:43;;;;;;;1.35;0.50;;;23.30;77.90;;;;;;4943795;29;20081;-87
2022/05/17 18:44:20;;;;;;;0.68;0.25;;;23.00;78.40;;;;;;4943405;28;20063;-87
2022/05/17 18:46:51;;;;;;;2.00;0.70;;;23.00;78.60;;;;;;4937437;29;20047;-87
2022/05/17 18:49:31;;;;;;;3.13;0.40;;;22.90;78.90;;;;;;4936191;29;20114;-87
2022/05/17 18:52:38;;;;;;;3.80;1.15;;;22.90;79.70;;;;;;4931548;29;20035;-87
2022/05/17 18:55:17;;;;;;;4.28;1.80;;;22.80;79.70;;;;;;4926857;29;20300;-87
2022/05/17 18:57:43;;;;;;;4.05;1.58;;;22.50;79.60;;;;;;4935656;29;20036;-87
2022/05/17 19:00:50;;;;;;;1.23;0.63;;;22.70;80.80;;;;;;4937645;29;20023;-87
2022/05/17 19:03:21;;;;;;;1.98;0.82;;;22.60;80.30;;;;;;4927838;29;20513;-87
2022/05/17 19:05:55;;;;;;;2.05;0.60;;;22.50;80.60;;;;;;4930846;29;20935;-86
2022/05/17 19:14:31;;;;;;;2.50;0.68;;;22.30;81.70;;;;;;4931942;29;20031;-87
2022/05/17 19:17:09;;;;;;;1.80;0.80;;;22.20;81.70;;;;;;4932436;28;20044;-86
2022/05/17 19:19:48;;;;;;;2.47;0.70;;;22.10;82.10;;;;;;4941032;28;20051;-87
2022/05/17 19:22:27;;;;;;;0.85;0.35;;;22.00;82.60;;;;;;4938265;29;20031;-86
2022/05/17 19:25:22;;;;;;;1.77;0.60;;;21.90;82.70;;;;;;4937531;29;20079;-86
2022/05/17 19:27:51;;;;;;;1.58;0.63;;;21.90;82.80;;;;;;4934907;29;20023;-87
2022/05/17 19:30:37;;;;;;;;;;;;;;;;;;;;;
2022/05/17 19:33:03;;;;;;;2.42;0.80;;;21.70;83.00;;;;;;4939056;29;20023;-87
2022/05/17 19:35:51;;;;;;;1.10;0.50;;;21.70;83.60;;;;;;4941449;29;20035;-87
2022/05/17 19:41:44;;;;;;;1.08;0.43;;;21.50;83.40;;;;;;4940720;29;20470;-87
2022/05/17 19:44:12;;;;;;;1.35;0.40;;;21.70;83.30;;;;;;4939569;29;20043;-86
2022/05/17 19:46:39;;;;;;;2.25;0.60;;;21.40;83.70;;;;;;4935830;28;20064;-86
2022/05/17 19:49:08;;;;;;;1.52;0.40;;;21.30;83.90;;;;;;4950142;28;20020;-87
2022/05/17 19:51:36;;;;;;;1.25;0.43;;;21.30;83.70;;;;;;4953432;28;20024;-85
2022/05/17 19:54:08;;;;;;;2.67;0.90;;;21.30;83.80;;;;;;4948031;28;20083;-86
2022/05/17 19:56:56;;;;;;;;;;;;;;;;;;;;;
2022/05/17 20:00:00;;;;;;;1.75;0.40;;;21.20;84.00;;;;;;4941983;29;20046;-87
2022/05/17 20:02:38;;;;;;;1.17;0.45;;;21.20;84.40;;;;;;4943435;29;20031;-86
2022/05/17 20:05:29;;;;;;;1.55;0.40;;;21.10;85.10;;;;;;4943105;28;20074;-87
2022/05/17 20:14:27;;;;;;;2.67;0.40;;;21.00;84.70;;;;;;4936369;29;20052;-86
2022/05/17 20:17:05;;;;;;;1.95;0.40;;;21.00;85.50;;;;;;4951832;29;20381;-87
2022/05/17 20:19:45;;;;;;;1.00;0.50;;;20.90;86.10;;;;;;4941289;29;20042;-87
2022/05/17 20:22:17;;;;;;;1.50;0.50;;;20.90;85.70;;;;;;4944671;29;20024;-87
2022/05/17 20:24:53;;;;;;;1.23;0.40;;;20.80;85.60;;;;;;4959605;28;20452;-86
2022/05/17 20:27:34;;;;;;;2.33;0.93;;;20.80;86.30;;;;;;4942657;28;20027;-87